Terminal Aerodrome Forecast
Issued by NWS

Current Version | Previous Version | Text Only | Print | Product List | Glossary On
Versions: 1 2 3 4 5 6 7 8 9 10 11 12 13 14 15 16 17 18 19
000
FTUS42 KMHX 061720
TAFPGV
TAF
KPGV 061720Z 0618/0718 21009KT P6SM VCTS SCT040CB SCT100
     FM070100 19005KT P6SM SCT250
     FM070900 21003KT 4SM BR SCT008
     FM071300 21006KT P6SM SCT250
      AMD LTD TO CLD VIS AND WIND=

USA.gov is the U.S. government's official web portal to all federal, state and local government web resources and services.